Terminal Aerodrome Forecast
Issued by NWS Medford, OR

Home | Current Version | Previous Version | Text Only | Print | Product List | Glossary On
Versions: 1 2 3 4 5 6 7 8 9 10 11 12 13 14 15 16 17 18 19 20
000
FTUS46 KMFR 220526
TAFMFR
TAF
KMFR 220526Z 2206/2306 30007KT 4SM FU OVC050
     FM221200 00000KT 2SM HZ OVC050
     FM221800 31005KT 5SM HZ SKC
     FM230200 VRB02KT 2SM FU SKC=

USA.gov is the U.S. government's official web portal to all federal, state and local government web resources and services.